ADDS METAR Data INFO
IDs: Format: Raw Decoded Include TAF

Data at: 1145 UTC 23 Jun 2018

PABA 231117Z 05006KT 10SM -RA OVC007 01/M01 A2996 RMK AO2 RAB1058 P0000 FZRANO
PABA 231052Z 06007KT 10SM OVC005 01/M01 A2996 RMK AO2 SLP129 T00061006 FZRANO
PABA 231036Z 05009KT 10SM BKN005 OVC055 01/M01 A2996 RMK AO2 FZRANO
PABA 231026Z 05009KT 10SM FEW005 OVC055 01/M01 A2995 RMK AO2 FZRANO
PABA 230952Z 04010KT 10SM OVC055 01/M01 A2996 RMK AO2 SLP130 T00111006 FZRANO
PABA 230852Z 05009KT 10SM SCT085 OVC120 02/M01 A2996 RMK AO2 SLP129 T00171006 400330000 53001 FZRANO
PABA 230752Z 05008KT 10SM OVC120 01/M01 A2995 RMK AO2 SLP129 T00111006 FZRANO
PABA 230710Z 05010KT 10SM SCT004 OVC110 01/00 A2995 RMK AO2 FZRANO
PABA 230652Z 04009KT 10SM OVC004 01/00 A2995 RMK AO2 SLP129 T00110000 FZRANO
PABA 230552Z 04009KT 10SM OVC004 01/00 A2995 RMK AO2 SLP128 T00110000 10022 20011 55002 FZRANO
PABA 230512Z 04009KT 10SM OVC004 01/00 A2995 RMK AO2 FZRANO
PABA 230419Z 05009KT 3SM BR OVC002 01/00 A2995 RMK AO2 FZRANO
PABA 230415Z 05011KT 1 1/2SM BR OVC002 01/01 A2995 RMK AO2 VIS 1V4 FZRANO
PABA 230410Z 05010KT 2SM BR OVC002 01/00 A2995 RMK AO2 VIS 1V5 FZRANO
PABA 230352Z 04010KT 10SM OVC004 02/01 A2996 RMK AO2 SLP129 T00170006 FZRANO
PABA 230252Z 05008KT 10SM OVC004 02/01 A2996 RMK AO2 SLP131 T00220006 53002 FZRANO
PABA 230157Z 06008KT 10SM OVC004 02/01 A2996 RMK AO2 FZRANO
PABA 230152Z 06007KT 10SM OVC002 02/01 A2996 RMK AO2 SLP130 T00220011 FZRANO
PABA 230121Z 05011KT 3SM BR OVC002 02/01 A2995 RMK AO2 FZRANO
PABA 230118Z 05011KT 1 3/4SM BR OVC002 02/01 A2995 RMK AO2 VIS 1V5 FZRANO
PABA 230115Z 04011KT 1SM BR OVC002 02/01 A2995 RMK AO2 VIS 1/2V5 FZRANO
PABA 230110Z 04010KT 3/4SM BR OVC002 02/01 A2995 RMK AO2 FZRANO
PABA 230059Z 04012KT 1/2SM FG OVC002 02/01 A2995 RMK AO2 FZRANO
PABA 230052Z 04011KT 1/4SM FG OVC002 02/01 A2995 RMK AO2 SLP127 T00170011 FZRANO
PABA 230029Z 05009KT 1/2SM FG OVC002 02/01 A2995 RMK AO2 FZRANO
PABA 230018Z 05009KT 3/4SM BR OVC002 02/01 A2995 RMK AO2 FZRANO
PABA 230007Z 05010KT 1SM BR OVC002 02/01 A2995 RMK AO2 FZRANO
PABA 230000Z 05009KT 3/4SM BR OVC002 02/01 A2995 RMK AO2 FZRANO
PABA 222352Z 05008KT 1/2SM FG OVC002 02/01 A2995 RMK AO2 SLP129 T00170006 10033 20017 53001 FZRANO
PABA 222347Z 05008KT 1/2SM FG OVC002 02/01 A2995 RMK AO2 FZRANO
PABA 222339Z 05008KT 3/4SM BR OVC002 02/01 A2996 RMK AO2 FZRANO
PABA 222325Z 06009KT 1SM BR OVC002 02/01 A2995 RMK AO2 FZRANO
PABA 222316Z 05010KT 3/4SM BR OVC002 02/01 A2995 RMK AO2 VIS 1/2V1 1/4 FZRANO
PABA 222310Z 05010KT 1/2SM FG OVC002 02/01 A2995 RMK AO2 FZRANO
PABA 222257Z 06009KT 1/4SM FG OVC002 02/01 A2995 RMK AO2 FZRANO
PABA 222252Z 05010KT 1/2SM FG OVC002 02/01 A2995 RMK AO2 SLP128 T00170011 FZRANO
PABA 222239Z 06009KT 1/2SM FG OVC002 02/01 A2995 RMK AO2 FZRANO
PABA 222208Z 06009KT 1/4SM FG OVC002 02/01 A2995 RMK AO2 FZRANO
PABA 222152Z 06010KT 1/2SM FG OVC002 02/01 A2995 RMK AO2 SLP128 T00220011 FZRANO
PABA 222148Z 06008KT 3/4SM BR OVC002 02/01 A2995 RMK AO2 FZRANO
PABA 222133Z 05009KT 3/4SM BR OVC004 02/01 A2995 RMK AO2 FZRANO
PABA 222128Z 05008KT 1SM BR OVC004 02/01 A2995 RMK AO2 FZRANO
PABA 222123Z 06009KT 3/4SM BR OVC004 02/01 A2995 RMK AO2 FZRANO
PABA 222118Z 05008KT 1/2SM FG OVC004 02/01 A2995 RMK AO2 FZRANO
PABA 222101Z 05009KT 3/4SM BR OVC004 02/01 A2995 RMK AO2 VIS 1/2V2 FZRANO
PABA 222059Z 05009KT 1 1/4SM BR OVC004 02/01 A2995 RMK AO2 VIS 1/2V4 FZRANO
PABA 222052Z 05008KT 1SM BR OVC004 02/01 A2995 RMK AO2 VIS 1/2V4 SLP128 T00220011 53004 FZRANO
PABA 222046Z 04009KT 1SM BR OVC004 02/01 A2995 RMK AO2 VIS 1/2V4 FZRANO
PABA 222043Z 04010KT 1 1/4SM BR OVC004 02/01 A2995 RMK AO2 VIS 1/2V4 FZRANO
PABA 222027Z 04009KT 2SM BR OVC004 02/01 A2995 RMK AO2 VIS 1V5 FZRANO
PABA 221952Z 04007KT 9SM OVC004 03/01 A2995 RMK AO2 SLP127 T00280011
PABA 221933Z 03008KT 10SM OVC004 03/01 A2995 RMK AO2
PABA 221852Z 01006KT 10SM OVC006 03/01 A2994 RMK AO2 SLP124 T00330011
PABA 221752Z 05004KT 10SM OVC006 03/01 A2994 RMK AO2 SLP124 T00280006 10028 20006 53003
PABA 221652Z 02006KT 10SM OVC006 03/01 A2994 RMK AO2 SLP122 T00280006
PABA 221552Z 02005KT 10SM OVC006 02/01 A2993 RMK AO2 SLP122 T00220006 FZRANO
PABA 221452Z 04005KT 10SM OVC006 02/01 A2993 RMK AO2 SLP121 T00170006 53001 FZRANO
PABA 221419Z 05005KT 10SM BKN006 02/01 A2993 RMK AO2 CIG 003V007 FZRANO
PABA 221411Z 04006KT 10SM BKN004 02/00 A2993 RMK AO2 CIG 003V007 FZRANO
PABA 221355Z 04006KT 10SM FEW004 02/01 A2993 RMK AO2 FZRANO
PABA 221352Z 04006KT 10SM CLR 02/01 A2993 RMK AO2 SLP121 T00170006 FZRANO
PABA 221252Z 02005KT 10SM CLR 02/01 A2993 RMK AO2 SLP120 T00170006 FZRANO
PABA 221152Z 05005KT 10SM CLR 01/00 A2993 RMK AO2 SLP120 60000 T00060000 10006 20000 55004 FZRANO
PABA 221052Z 05008KT 10SM CLR 01/00 A2992 RMK AO2 SLP119 T00060000 FZRANO
PABA 220952Z 04007KT 10SM CLR 00/00 A2993 RMK AO2 SLP119 T00000000 FZRANO
PABA 220907Z 05006KT 7SM SCT002 00/00 A2994 RMK AO2 FZRANO
PABA 220903Z 05006KT 2SM BR SCT002 00/00 A2994 RMK AO2 FZRANO
PABA 220900Z 04006KT 1 1/4SM BR BKN002 00/M01 A2994 RMK AO2 FZRANO
PABA 220852Z 04006KT 3/4SM BR BKN002 00/00 A2994 RMK AO2 RAE36UPB01E14 SLP124 P0000 60000 T00000000 400331011 56003 FZRANO
PABA 220837Z 05006KT 1/2SM FG OVC002 00/00 A2995 RMK AO2 RAE36UPB01E14 P0000 FZRANO
PABA 220752Z 07007KT 1/4SM -RA FG OVC002 01/00 A2995 RMK AO2 UPE35RAB35 SLP126 P0000 T00060000 FZRANO
PABA 220652Z 06010KT 1/4SM UP FG OVC002 00/00 A2995 RMK AO2 SLP127 P0000 T00000000 FZRANO
PABA 220552Z 06010KT 1/4SM UP FG OVC002 00/00 A2995 RMK AO2 RAB28E41UPB41 SLP128 P0000 60000 T00000000 10022 20000 56011 FZRANO
PABA 220452Z 05009KT M1/4SM FG OVC002 01/00 A2996 RMK AO2 SLP132 T00060000 FZRANO
PABA 220429Z 05010KT 1/4SM FG OVC002 00/00 A2997 RMK AO2 FZRANO
PABA 220422Z 06010KT 1/2SM FG OVC002 00/00 A2997 RMK AO2 FZRANO
PABA 220419Z 06010KT 3/4SM BR OVC002 01/00 A2997 RMK AO2 FZRANO
PABA 220415Z 05009KT 1SM BR OVC002 00/00 A2997 RMK AO2 FZRANO
PABA 220410Z 06011KT 1/2SM FG OVC002 00/00 A2997 RMK AO2 FZRANO
PABA 220405Z 05011KT 1/4SM FG OVC002 01/00 A2997 RMK AO2 FZRANO
PABA 220352Z 05010KT 1/2SM FG OVC002 01/00 A2997 RMK AO2 SLP135 T00060000 FZRANO
PABA 220252Z 05011KT 1/4SM FG OVC002 01/00 A2999 RMK AO2 SLP139 T00060000 56018 FZRANO
PABA 220152Z 06011KT 1/4SM FG OVC002 01/00 A3000 RMK AO2 SLP144 T00060000 FZRANO
PABA 220052Z 06011KT 1/4SM FG OVC002 01/00 A3002 RMK AO2 SLP152 T00110000 FZRANO
PABA 220049Z 06011KT 1/4SM FG OVC002 01/00 A3002 RMK AO2 FZRANO
PABA 220038Z 06011KT 1/2SM FG OVC002 01/00 A3003 RMK AO2 FZRANO
PABA 220033Z 06011KT 3/4SM BR OVC002 01/00 A3003 RMK AO2 VIS 1/4V2 1/2 FZRANO
PABA 220027Z 06011KT 1 1/2SM BR OVC002 01/00 A3003 RMK AO2 VIS 1V2 1/2 FZRANO
PABA 220022Z 06010KT 2 1/2SM BR OVC002 02/00 A3003 RMK AO2 VIS 1V5 CIG 002V005 FZRANO
PABA 212359Z 04010KT 4SM BR OVC004 02/01 A3004 RMK AO2 FZRANO
PABA 212356Z 04011KT 1 1/4SM BR OVC004 02/01 A3004 RMK AO2 FZRANO
PABA 212352Z 04010KT 3/4SM BR OVC004 02/01 A3004 RMK AO2 SLP157 T00170006 10033 20017 58012 FZRANO
PABA 212346Z 04011KT 1 3/4SM BR OVC004 02/01 A3004 RMK AO2 FZRANO